createdAt,value
2023-04-30T00:01:58.910Z,81.26
2023-04-30T00:04:28.031Z,81.44
2023-04-30T00:06:56.574Z,81.44
2023-04-30T00:09:24.480Z,81.40
2023-04-30T00:11:52.563Z,81.48
2023-04-30T00:14:20.911Z,81.52
2023-04-30T00:16:49.090Z,81.64
2023-04-30T00:19:17.216Z,81.70
2023-04-30T00:21:45.148Z,81.97
2023-04-30T00:24:13.059Z,82.24
2023-04-30T00:26:42.774Z,82.46
2023-04-30T00:29:11.198Z,82.66
2023-04-30T00:31:39.589Z,82.82
2023-04-30T00:34:07.702Z,82.93
2023-04-30T00:39:33.637Z,82.85
2023-04-30T00:42:02.857Z,82.95
2023-04-30T00:44:30.897Z,83.00
2023-04-30T00:46:58.853Z,83.08
2023-04-30T00:49:26.960Z,83.23
2023-04-30T00:51:55.045Z,83.23
2023-04-30T00:54:24.426Z,83.09
2023-04-30T00:56:52.822Z,83.19
2023-04-30T00:59:21.293Z,83.31
2023-04-30T01:01:49.930Z,83.51
2023-04-30T01:04:18.459Z,83.66
2023-04-30T01:06:46.748Z,83.79
2023-04-30T01:09:14.971Z,83.91
2023-04-30T01:11:55.079Z,84.01
2023-04-30T01:14:50.774Z,84.01
2023-04-30T01:17:41.940Z,84.03
2023-04-30T01:20:11.451Z,84.12
2023-04-30T01:22:48.588Z,84.27
2023-04-30T01:25:38.058Z,84.40
2023-04-30T01:28:16.898Z,84.45
2023-04-30T01:30:45.727Z,84.52
2023-04-30T01:36:19.425Z,84.62
2023-04-30T01:39:10.177Z,84.63
2023-04-30T01:41:56.677Z,84.75
2023-04-30T01:44:29.793Z,84.99
2023-04-30T01:47:19.185Z,85.27
2023-04-30T01:50:11.405Z,85.51
2023-04-30T01:52:52.727Z,85.71
2023-04-30T01:55:52.641Z,86.01
2023-04-30T01:58:23.821Z,86.15
2023-04-30T02:00:52.225Z,86.40
2023-04-30T02:03:20.506Z,86.52
2023-04-30T02:05:48.896Z,86.61
2023-04-30T02:08:17.528Z,86.80
2023-04-30T02:10:45.691Z,86.97
2023-04-30T02:13:13.618Z,87.06
2023-04-30T02:15:41.680Z,87.31
2023-04-30T02:18:09.693Z,87.50
2023-04-30T02:20:38.570Z,87.62
2023-04-30T02:23:09.862Z,87.59
2023-04-30T02:25:38.706Z,87.76
2023-04-30T02:28:06.672Z,87.92
2023-04-30T02:30:34.504Z,88.12
2023-04-30T02:33:03.697Z,88.18
2023-04-30T02:35:31.732Z,88.24
2023-04-30T02:37:59.789Z,88.38
2023-04-30T02:40:28.524Z,88.49
2023-04-30T02:42:56.923Z,88.51
2023-04-30T02:45:25.053Z,88.53
2023-04-30T02:47:53.145Z,88.60
2023-04-30T02:50:21.547Z,88.68
2023-04-30T02:52:49.825Z,88.77
2023-04-30T02:55:17.819Z,88.77
2023-04-30T02:57:45.729Z,88.72
2023-04-30T03:00:14.675Z,88.77
2023-04-30T03:02:43.754Z,88.80
2023-04-30T03:05:11.863Z,88.83
2023-04-30T03:07:40.083Z,88.79
2023-04-30T03:10:09.155Z,88.83
2023-04-30T03:12:37.142Z,88.80
2023-04-30T03:15:05.752Z,88.80
2023-04-30T03:17:33.883Z,88.71
2023-04-30T03:20:01.972Z,88.67
2023-04-30T03:22:30.751Z,88.61
2023-04-30T03:24:58.713Z,88.54
2023-04-30T03:27:26.648Z,88.42
2023-04-30T03:29:54.961Z,88.40
2023-04-30T03:32:23.942Z,88.38
2023-04-30T03:34:52.110Z,88.37
2023-04-30T03:37:20.123Z,88.45
2023-04-30T03:39:48.052Z,88.26
2023-04-30T03:42:16.999Z,87.98
2023-04-30T03:44:45.024Z,87.49
2023-04-30T03:47:12.976Z,87.05
2023-04-30T03:49:41.403Z,86.64
2023-04-30T03:52:09.430Z,86.35
2023-04-30T03:54:37.728Z,86.15
2023-04-30T03:57:10.792Z,86.09
2023-04-30T03:59:38.733Z,86.22
2023-04-30T04:02:57.343Z,86.31
2023-04-30T04:05:26.560Z,86.42
2023-04-30T04:07:55.102Z,86.59
2023-04-30T04:10:23.499Z,86.71
2023-04-30T04:12:51.462Z,86.83
2023-04-30T04:15:19.580Z,86.90
2023-04-30T04:17:47.592Z,86.98
2023-04-30T04:20:16.850Z,87.05
2023-04-30T04:22:45.420Z,87.20
2023-04-30T04:25:39.423Z,88.01
2023-04-30T04:28:07.963Z,88.61
2023-04-30T04:34:38.989Z,87.62
2023-04-30T04:37:07.179Z,87.26
2023-04-30T04:39:36.719Z,87.25
2023-04-30T04:42:05.172Z,86.90
2023-04-30T04:44:33.476Z,86.82
2023-04-30T04:47:03.550Z,86.24
2023-04-30T04:49:32.162Z,86.18
2023-04-30T04:52:00.138Z,85.61
2023-04-30T04:54:28.506Z,85.57
2023-04-30T04:56:56.700Z,85.22
2023-04-30T04:59:26.927Z,84.79
2023-04-30T05:01:56.626Z,84.12
2023-04-30T05:04:24.897Z,83.70
2023-04-30T05:06:54.464Z,83.39
2023-04-30T05:09:22.648Z,83.28
2023-04-30T05:11:51.052Z,83.36
2023-04-30T05:14:18.958Z,83.31
2023-04-30T05:16:47.116Z,83.35
2023-04-30T05:19:15.192Z,83.52
2023-04-30T05:21:43.342Z,83.57
2023-04-30T05:24:17.967Z,83.71
2023-04-30T05:26:46.263Z,83.88
2023-04-30T05:29:14.320Z,84.07
2023-04-30T05:31:42.421Z,84.12
2023-04-30T05:34:10.453Z,84.04
2023-04-30T05:36:38.389Z,83.90
2023-04-30T05:39:06.428Z,83.87
2023-04-30T05:41:34.371Z,83.86
2023-04-30T05:44:02.944Z,83.89
2023-04-30T05:46:31.181Z,83.88
2023-04-30T05:48:59.112Z,83.98
2023-04-30T05:51:28.035Z,84.07
2023-04-30T05:53:57.547Z,84.06
2023-04-30T05:56:26.592Z,84.00
2023-04-30T05:58:54.563Z,84.07
2023-04-30T06:01:23.911Z,84.02
2023-04-30T06:03:52.398Z,83.68
2023-04-30T06:06:21.180Z,83.54
2023-04-30T06:08:49.171Z,83.33
2023-04-30T06:11:17.196Z,83.21
2023-04-30T06:13:47.833Z,83.28
2023-04-30T06:16:16.353Z,83.03
2023-04-30T06:18:44.724Z,83.04
2023-04-30T06:21:12.750Z,83.26
2023-04-30T06:23:40.757Z,83.43
2023-04-30T06:26:08.761Z,82.96
2023-04-30T06:28:36.691Z,82.29
2023-04-30T06:31:04.791Z,79.55
2023-04-30T06:33:32.758Z,77.39
2023-04-30T06:36:00.680Z,73.58
2023-04-30T06:38:29.174Z,71.24
2023-04-30T06:40:57.233Z,69.23
2023-04-30T06:43:25.272Z,68.28
2023-04-30T06:45:53.156Z,67.30
2023-04-30T06:48:21.069Z,65.48
2023-04-30T06:50:49.103Z,65.07
2023-04-30T06:53:17.020Z,63.78
2023-04-30T06:55:46.850Z,61.29
2023-04-30T06:58:15.798Z,62.14
2023-04-30T07:00:43.830Z,57.41
2023-04-30T07:03:11.907Z,54.02
2023-04-30T07:05:40.080Z,52.81
2023-04-30T07:08:08.010Z,52.52
2023-04-30T07:10:36.262Z,51.49
2023-04-30T07:13:04.293Z,51.81
2023-04-30T07:15:32.356Z,51.53
2023-04-30T07:18:00.476Z,50.12
2023-04-30T07:20:28.549Z,51.24
2023-04-30T07:22:56.981Z,51.79
2023-04-30T07:25:24.923Z,51.88
2023-04-30T07:27:56.476Z,51.04
2023-04-30T07:30:25.480Z,50.46
2023-04-30T07:32:53.451Z,50.14
2023-04-30T07:35:21.442Z,49.19
2023-04-30T07:37:49.482Z,47.62
2023-04-30T07:40:25.401Z,48.05
2023-04-30T07:43:03.364Z,50.48
2023-04-30T07:45:31.987Z,51.74
2023-04-30T07:48:00.028Z,50.76
2023-04-30T07:50:29.904Z,50.19
2023-04-30T07:52:58.025Z,50.12
2023-04-30T07:55:26.155Z,50.51
2023-04-30T07:57:54.135Z,50.04
2023-04-30T08:00:22.239Z,48.70
2023-04-30T08:02:50.882Z,46.75
2023-04-30T08:05:19.191Z,46.28
2023-04-30T08:07:47.238Z,47.50
2023-04-30T08:10:15.795Z,48.29
2023-04-30T08:12:44.944Z,47.80
2023-04-30T08:15:12.844Z,46.80
2023-04-30T08:17:40.994Z,47.52
2023-04-30T08:20:09.590Z,48.32
2023-04-30T08:22:37.672Z,48.99
2023-04-30T08:25:07.006Z,47.56
2023-04-30T08:27:34.937Z,46.80
2023-04-30T08:30:09.914Z,47.12
2023-04-30T08:32:46.946Z,47.91
2023-04-30T08:35:21.435Z,48.24
2023-04-30T08:37:50.300Z,48.91
2023-04-30T08:40:19.279Z,47.53
2023-04-30T08:43:00.391Z,48.44
2023-04-30T08:45:28.578Z,48.86
2023-04-30T08:47:59.840Z,48.18
2023-04-30T08:50:29.410Z,47.35
2023-04-30T08:53:01.823Z,45.90
2023-04-30T08:55:30.169Z,47.49
2023-04-30T08:57:58.225Z,46.31
2023-04-30T09:00:28.659Z,45.80
2023-04-30T09:02:56.811Z,43.57
2023-04-30T09:05:24.933Z,42.51
2023-04-30T09:08:02.995Z,42.05
2023-04-30T09:10:36.268Z,41.96
2023-04-30T09:13:09.382Z,42.10
2023-04-30T09:15:41.616Z,43.65
2023-04-30T09:18:14.685Z,42.45
2023-04-30T09:21:01.924Z,40.90
2023-04-30T09:23:30.903Z,40.80
2023-04-30T09:25:58.754Z,40.66
2023-04-30T09:28:29.152Z,41.69
2023-04-30T09:30:58.178Z,40.61
2023-04-30T09:33:26.175Z,40.11
2023-04-30T09:35:54.224Z,41.00
2023-04-30T09:38:33.211Z,41.69
2023-04-30T09:41:02.148Z,42.66
2023-04-30T09:43:31.006Z,43.27
2023-04-30T09:46:00.725Z,42.46
2023-04-30T09:48:29.171Z,42.83
2023-04-30T09:50:57.738Z,44.45
2023-04-30T09:53:26.789Z,42.96
2023-04-30T09:55:59.205Z,42.58
2023-04-30T09:58:29.637Z,43.14
2023-04-30T10:01:01.134Z,43.52
2023-04-30T10:03:31.619Z,44.11
2023-04-30T10:06:01.086Z,43.39
2023-04-30T10:08:47.744Z,44.30
2023-04-30T10:11:23.698Z,42.72
2023-04-30T10:13:53.663Z,42.30
2023-04-30T10:16:28.674Z,42.52
2023-04-30T10:19:00.953Z,41.93
2023-04-30T10:21:30.002Z,40.18
2023-04-30T10:23:59.282Z,39.87
2023-04-30T10:26:29.710Z,41.32
2023-04-30T10:29:01.462Z,42.11
2023-04-30T10:31:30.825Z,41.78
2023-04-30T10:34:05.015Z,39.95
2023-04-30T10:36:38.915Z,39.09
2023-04-30T10:39:07.500Z,38.47
2023-04-30T10:41:35.709Z,37.08
2023-04-30T10:44:05.591Z,38.90
2023-04-30T10:46:37.011Z,40.48
2023-04-30T10:49:05.500Z,41.19
2023-04-30T10:51:58.666Z,42.23
2023-04-30T10:54:36.967Z,42.87
2023-04-30T10:57:17.920Z,41.06
